KPBF

Pine Bluff Regional Grider Field Airport

Pine Bluff, Arkansas, USA
KPBF 181133Z 1812/1912 16006KT P6SM SCT100 FM181600 17008KT P6SM VCTS SCT050CB FM190100 VRB03KT P6SM SCT250
Issued Valid From Valid To
Jun-18 @ 11:33 UTC
(2 hours ago)
Jun-18 @ 12:00 UTC
(an hour ago)
Jun-19 @ 12:00 UTC
(in 23 hours)
Jun-18 @ 12:00 to Jun-18 @ 16:00
KPBF 181133Z 1812/1912 16006KT P6SM SCT100
Wind Visibility Clouds
160° at 6 knots Greater than 6 miles
  • Scattered at 10,000' AGL
From Jun-18 @ 16:00 to Jun-19 @ 01:00
FM181600 17008KT P6SM VCTS SCT050CB
Wind Visibility Clouds Conditions
170° at 8 knots Greater than 6 miles
  • Scattered at 5,000' AGL
  • Area Thunderstorm
From Jun-19 @ 01:00 to Jun-19 @ 12:00
FM190100 VRB03KT P6SM SCT250
Wind Visibility Clouds
Variable at 3 knots Greater than 6 miles
  • Scattered at 25,000' AGL
KPBF 181133Z 1812/1912 16006KT P6SM SCT100 FM181600 17008KT P6SM VCTS SCT050CB FM190100 VRB03KT P6SM SCT250
Issued Jun-18 @ 11:33 UTC
(2 hours ago)
Valid From Jun-18 @ 12:00 UTC
(an hour ago)
Valid To Jun-19 @ 12:00 UTC
(in 23 hours)
Jun-18 @ 12:00 - Jun-18 @ 16:00
Wind Visibility
160° at 6 knots Greater than 6 miles
Clouds
  • Scattered at 10,000' AGL
From Jun-18 @ 16:00 - Jun-19 @ 01:00
Wind Visibility
170° at 8 knots Greater than 6 miles
Clouds
  • Scattered at 5,000' AGL
Conditions
  • Area Thunderstorm
From Jun-19 @ 01:00 - Jun-19 @ 12:00
Wind Visibility
Variable at 3 knots Greater than 6 miles
Clouds
  • Scattered at 25,000' AGL